»·PEaware :: N478GF KBUR-KFUL

N478GF :: KBUR-KFUL

FLIGHT INFORMATION

Flight Status: Arrived
Operator: Privately registered:
United States
More flights under this callsign
Pilot: Aaron H. (20539)
Aircraft: CESSNA 172 SKYHAWK
(C172)
More flights by this aircraft type
Origin: KBUR Bob Hope-Burbank
United States
Destination: KFUL Fullerton Mun
United States
More flights between these airports :: More routes between these airports
Route: +
File this flight plan on PilotEdge
Remarks:
Altitude:
(Current/Filed)
2,000ft
Speed:
(Current/Filed)
120kts
Departed: 26-Sep-18 04:43 PM
Arrived: 26-Sep-18 05:02 PM
Distance/Time
Traveled:
27nm/0:18
Distance/Time
To Go:
Arrived

Flight Plot

Page will automatically refresh every two minutes.


Map Options




Map Legend


Flown Route
Filed Route
Departure Airport
Arrival Airport
Navaid (VOR, NDB)
Fix

Horizontal Profiles

Position Reports

Time Latitude Longitude Heading Altitude Ground
Speed
26-Sep-18 16:17 34.196377 -118.367532 12 722ft 0kts
26-Sep-18 16:18 34.196377 -118.367532 12 722ft 0kts
26-Sep-18 16:19 34.196377 -118.367532 12 722ft 0kts
26-Sep-18 16:20 34.196377 -118.367532 12 722ft 0kts
26-Sep-18 16:21 34.196377 -118.367532 12 722ft 0kts
26-Sep-18 16:22 34.196377 -118.367532 12 722ft 0kts
26-Sep-18 16:23 34.196377 -118.367532 12 722ft 0kts
26-Sep-18 16:24 34.196377 -118.367532 12 722ft 0kts
26-Sep-18 16:25 34.196377 -118.367532 12 722ft 0kts
26-Sep-18 16:26 34.196377 -118.367532 12 722ft 0kts
26-Sep-18 16:27 34.196377 -118.367532 12 722ft 0kts
26-Sep-18 16:28 34.196377 -118.367532 12 722ft 0kts
26-Sep-18 16:29 34.196377 -118.367532 12 722ft 0kts
26-Sep-18 16:30 34.196377 -118.367532 12 722ft 0kts
26-Sep-18 16:31 34.196377 -118.367532 12 722ft 0kts
26-Sep-18 16:32 34.196377 -118.367532 12 722ft 0kts
26-Sep-18 16:33 34.196377 -118.367532 12 722ft 0kts
26-Sep-18 16:34 34.196377 -118.367532 12 722ft 0kts
26-Sep-18 16:35 34.196377 -118.367532 12 722ft 0kts
26-Sep-18 16:36 34.196377 -118.367532 12 722ft 0kts
26-Sep-18 16:37 34.196377 -118.367532 12 722ft 0kts
26-Sep-18 16:38 34.196377 -118.367532 12 722ft 0kts
26-Sep-18 16:39 34.196618 -118.366799 17 722ft 5kts
26-Sep-18 16:40 34.196653 -118.366789 7 722ft 0kts
26-Sep-18 16:41 34.197060 -118.368992 323 724ft 0kts
26-Sep-18 16:42 34.197060 -118.368992 323 724ft 0kts
26-Sep-18 16:43 34.197060 -118.368992 323 724ft 0kts
26-Sep-18 16:44 34.197893 -118.367574 90 725ft 35kts
26-Sep-18 16:45 34.198440 -118.346454 90 1512ft 70kts
26-Sep-18 16:46 34.192631 -118.322340 122 2374ft 85kts
26-Sep-18 16:47 34.182077 -118.296527 122 3027ft 108kts
26-Sep-18 16:48 34.164809 -118.262534 125 3094ft 121kts
26-Sep-18 16:49 34.144193 -118.228369 131 2962ft 129kts
26-Sep-18 16:50 34.122978 -118.199636 137 2887ft 112kts
26-Sep-18 16:51 34.106394 -118.170585 107 3062ft 106kts
26-Sep-18 16:52 34.098976 -118.133563 107 3024ft 121kts
26-Sep-18 16:53 34.089849 -118.093709 109 2892ft 124kts
26-Sep-18 16:54 34.080511 -118.054712 109 2961ft 117kts
26-Sep-18 16:55 34.064731 -118.020864 131 2986ft 117kts
26-Sep-18 16:56 34.043326 -117.990188 136 2941ft 122kts
26-Sep-18 16:57 34.016252 -117.963763 165 2855ft 126kts
26-Sep-18 16:58 33.983761 -117.967792 192 3004ft 122kts
26-Sep-18 16:59 33.951475 -117.978806 199 2971ft 120kts
26-Sep-18 17:00 33.918933 -117.986338 170 2414ft 127kts
26-Sep-18 17:01 33.888393 -117.982580 176 1316ft 102kts
26-Sep-18 17:02 33.883400 -117.960448 104 743ft 65kts
26-Sep-18 17:03 33.873357 -117.972744 259 212ft 63kts
26-Sep-18 17:04 33.871367 -117.981173 167 90ft 0kts
26-Sep-18 17:05 33.870677 -117.980635 3 92ft 1kts
26-Sep-18 17:06 33.870683 -117.980635 359 92ft 0kts
26-Sep-18 17:07 33.870683 -117.980635 359 92ft 0kts

Navigation Log

Ident Type
1. KBUR Airport
2. KFUL Airport